createdAt,value
2022-11-16T00:01:31.021Z,98736.69
2022-11-16T00:04:00.933Z,98726.50
2022-11-16T00:06:35.646Z,98726.53
2022-11-16T00:09:26.767Z,98717.31
2022-11-16T00:11:56.677Z,98713.22
2022-11-16T00:14:27.617Z,98715.50
2022-11-16T00:16:56.091Z,98705.16
2022-11-16T00:19:24.688Z,98706.84
2022-11-16T00:21:56.620Z,98700.38
2022-11-16T00:24:26.823Z,98694.81
2022-11-16T00:26:56.183Z,98697.16
2022-11-16T00:29:26.480Z,98695.97
2022-11-16T00:31:57.660Z,98689.88
2022-11-16T00:34:26.484Z,98678.47
2022-11-16T00:36:56.853Z,98681.72
2022-11-16T00:39:26.353Z,98692.91
2022-11-16T00:41:55.633Z,98699.91
2022-11-16T00:44:23.884Z,98701.22
2022-11-16T00:46:52.066Z,98695.16
2022-11-16T00:49:20.091Z,98692.63
2022-11-16T00:51:50.600Z,98695.03
2022-11-16T00:54:18.816Z,98695.00
2022-11-16T00:56:51.767Z,98692.38
2022-11-16T00:59:19.987Z,98684.81
2022-11-16T01:01:55.886Z,98687.09
2022-11-16T01:04:23.992Z,98686.56
2022-11-16T01:06:55.978Z,98686.78
2022-11-16T01:09:26.172Z,98680.06
2022-11-16T01:12:10.113Z,98673.47
2022-11-16T01:14:40.071Z,98670.31
2022-11-16T01:17:09.133Z,98672.34
2022-11-16T01:19:40.501Z,98665.88
2022-11-16T01:22:09.624Z,98664.13
2022-11-16T01:24:39.926Z,98659.75
2022-11-16T01:27:12.212Z,98661.75
2022-11-16T01:29:43.957Z,98671.34
2022-11-16T01:32:14.869Z,98671.63
2022-11-16T01:34:45.829Z,98666.44
2022-11-16T01:37:26.900Z,98668.09
2022-11-16T01:39:57.752Z,98657.53
2022-11-16T01:42:29.257Z,98657.94
2022-11-16T01:45:07.546Z,98655.28
2022-11-16T01:47:36.574Z,98644.25
2022-11-16T01:50:10.729Z,98645.09
2022-11-16T01:52:45.839Z,98642.53
2022-11-16T01:55:15.000Z,98636.56
2022-11-16T01:58:07.633Z,98638.31
2022-11-16T02:00:39.034Z,98627.75
2022-11-16T02:03:26.253Z,98628.88
2022-11-16T02:06:10.911Z,98622.38
2022-11-16T02:09:15.381Z,98625.44
2022-11-16T02:12:10.536Z,98615.19
2022-11-16T02:14:53.544Z,98613.88
2022-11-16T02:17:33.604Z,98602.19
2022-11-16T02:20:35.182Z,98604.13
2022-11-16T02:23:22.262Z,98598.81
2022-11-16T02:25:57.843Z,98588.66
2022-11-16T02:28:35.253Z,98592.56
2022-11-16T02:31:08.684Z,98582.47
2022-11-16T02:33:39.817Z,98567.91
2022-11-16T02:36:15.313Z,98575.16
2022-11-16T02:38:47.645Z,98572.72
2022-11-16T02:41:18.961Z,98563.31
2022-11-16T02:43:53.203Z,98557.97
2022-11-16T02:46:30.435Z,98557.38
2022-11-16T02:49:00.951Z,98556.53
2022-11-16T02:51:30.355Z,98557.81
2022-11-16T02:54:04.532Z,98549.38
2022-11-16T02:56:43.604Z,98554.00
2022-11-16T02:59:17.427Z,98544.75
2022-11-16T03:01:55.726Z,98538.50
2022-11-16T03:04:30.711Z,98534.03
2022-11-16T03:07:02.193Z,98527.66
2022-11-16T03:09:32.375Z,98531.31
2022-11-16T03:12:01.286Z,98531.47
2022-11-16T03:14:37.152Z,98529.38
2022-11-16T03:17:11.664Z,98514.63
2022-11-16T03:19:45.329Z,98511.38
2022-11-16T03:22:16.579Z,98516.28
2022-11-16T03:24:45.297Z,98514.84
2022-11-16T03:27:23.224Z,98523.97
2022-11-16T03:30:00.405Z,98529.53
2022-11-16T03:32:44.617Z,98529.81
2022-11-16T03:35:17.481Z,98535.63
2022-11-16T03:37:49.346Z,98530.38
2022-11-16T03:40:18.946Z,98531.53
2022-11-16T03:42:50.628Z,98537.31
2022-11-16T03:45:20.436Z,98532.03
2022-11-16T03:47:54.099Z,98519.56
2022-11-16T03:50:24.188Z,98527.88
2022-11-16T03:52:54.403Z,98512.06
2022-11-16T03:55:23.772Z,98518.16
2022-11-16T03:57:53.912Z,98515.97
2022-11-16T04:00:22.280Z,98511.25
2022-11-16T04:02:55.135Z,98509.31
2022-11-16T04:05:42.580Z,98505.56
2022-11-16T04:08:33.449Z,98502.75
2022-11-16T04:11:20.221Z,98497.84
2022-11-16T04:14:09.358Z,98492.09
2022-11-16T04:17:00.173Z,98487.41
2022-11-16T04:19:47.124Z,98489.53
2022-11-16T04:22:37.125Z,98491.38
2022-11-16T04:25:09.872Z,98486.22
2022-11-16T04:27:56.655Z,98488.19
2022-11-16T04:30:25.784Z,98474.22
2022-11-16T04:33:11.553Z,98471.38
2022-11-16T04:36:00.144Z,98461.22
2022-11-16T04:38:30.672Z,98453.06
2022-11-16T04:41:01.183Z,98453.56
2022-11-16T04:43:29.478Z,98455.13
2022-11-16T04:46:14.927Z,98459.25
2022-11-16T04:48:45.120Z,98460.09
2022-11-16T04:51:14.602Z,98453.41
2022-11-16T04:53:42.848Z,98449.81
2022-11-16T04:56:21.132Z,98445.88
2022-11-16T04:58:49.143Z,98450.50
2022-11-16T05:01:56.180Z,98444.47
2022-11-16T05:04:25.568Z,98451.44
2022-11-16T05:07:10.908Z,98461.22
2022-11-16T05:09:46.521Z,98472.72
2022-11-16T05:12:18.179Z,98469.28
2022-11-16T05:14:49.749Z,98472.72
2022-11-16T05:17:19.892Z,98459.09
2022-11-16T05:20:08.321Z,98450.72
2022-11-16T05:22:54.024Z,98459.22
2022-11-16T05:25:24.759Z,98450.75
2022-11-16T05:27:54.083Z,98458.06
2022-11-16T05:30:22.253Z,98445.81
2022-11-16T05:32:53.243Z,98450.69
2022-11-16T05:35:23.780Z,98443.53
2022-11-16T05:37:54.446Z,98448.53
2022-11-16T05:40:23.046Z,98448.63
2022-11-16T05:43:01.198Z,98450.50
2022-11-16T05:45:34.287Z,98452.22
2022-11-16T05:48:02.975Z,98447.75
2022-11-16T05:50:32.704Z,98448.84
2022-11-16T05:53:33.711Z,98432.97
2022-11-16T05:56:03.563Z,98429.69
2022-11-16T05:58:35.303Z,98428.59
2022-11-16T06:01:04.023Z,98417.56
2022-11-16T06:03:33.101Z,98420.41
2022-11-16T06:06:01.883Z,98428.22
2022-11-16T06:08:38.969Z,98434.97
2022-11-16T06:11:12.431Z,98428.03
2022-11-16T06:13:41.050Z,98433.34
2022-11-16T06:16:10.480Z,98427.34
2022-11-16T06:18:40.597Z,98433.84
2022-11-16T06:21:10.794Z,98427.47
2022-11-16T06:23:40.383Z,98428.22
2022-11-16T06:26:09.491Z,98432.34
2022-11-16T06:28:40.281Z,98432.34
2022-11-16T06:31:09.190Z,98435.47
2022-11-16T06:33:43.285Z,98430.16
2022-11-16T06:36:18.929Z,98437.50
2022-11-16T06:38:53.549Z,98436.44
2022-11-16T06:41:23.551Z,98427.50
2022-11-16T06:43:56.822Z,98429.00
2022-11-16T06:46:32.314Z,98421.63
2022-11-16T06:49:00.577Z,98420.06
2022-11-16T06:51:28.725Z,98419.97
2022-11-16T06:53:58.125Z,98412.31
2022-11-16T06:56:28.837Z,98409.13
2022-11-16T06:58:58.933Z,98404.50
2022-11-16T07:01:31.805Z,98400.81
2022-11-16T07:04:05.510Z,98397.16
2022-11-16T07:06:34.909Z,98398.31
2022-11-16T07:09:08.638Z,98402.31
2022-11-16T07:11:37.384Z,98397.31
2022-11-16T07:14:05.538Z,98400.81
2022-11-16T07:16:35.653Z,98394.88
2022-11-16T07:19:04.795Z,98391.03
2022-11-16T07:21:36.060Z,98392.09
2022-11-16T07:24:09.434Z,98388.06
2022-11-16T07:26:41.600Z,98388.53
2022-11-16T07:29:15.712Z,98390.03
2022-11-16T07:32:02.833Z,98389.72
2022-11-16T07:34:55.792Z,98396.69
2022-11-16T07:37:26.626Z,98395.81
2022-11-16T07:40:03.551Z,98389.97
2022-11-16T07:42:36.506Z,98398.78
2022-11-16T07:45:22.268Z,98396.66
2022-11-16T07:47:59.752Z,98394.66
2022-11-16T07:50:55.448Z,98392.72
2022-11-16T07:53:26.283Z,98405.13
2022-11-16T07:56:12.248Z,98399.16
2022-11-16T07:58:44.321Z,98405.03
2022-11-16T08:01:18.265Z,98397.41
2022-11-16T08:04:01.007Z,98394.03
2022-11-16T08:06:34.467Z,98399.66
2022-11-16T08:09:05.481Z,98390.72
2022-11-16T08:11:49.167Z,98397.84
2022-11-16T08:14:20.339Z,98400.03
2022-11-16T08:16:59.106Z,98392.31
2022-11-16T08:19:27.730Z,98389.69
2022-11-16T08:21:57.823Z,98392.25
2022-11-16T08:24:33.429Z,98393.69
2022-11-16T08:27:19.851Z,98400.03
2022-11-16T08:30:04.292Z,98399.03
2022-11-16T08:32:41.290Z,98398.00
2022-11-16T08:35:13.000Z,98403.00
2022-11-16T08:37:45.412Z,98408.69
2022-11-16T08:40:16.594Z,98411.94
2022-11-16T08:43:00.635Z,98405.34
2022-11-16T08:45:31.770Z,98407.47
2022-11-16T08:48:11.968Z,98402.31
2022-11-16T08:51:02.296Z,98399.34
2022-11-16T08:53:32.780Z,98409.97
2022-11-16T08:56:09.593Z,98399.69
2022-11-16T08:59:06.978Z,98407.16
2022-11-16T09:01:40.756Z,98407.69
2022-11-16T09:04:19.664Z,98413.19
2022-11-16T09:06:53.545Z,98415.28
2022-11-16T09:09:23.604Z,98420.34
2022-11-16T09:11:55.690Z,98427.94
2022-11-16T09:14:35.238Z,98426.47
2022-11-16T09:17:05.737Z,98429.59
2022-11-16T09:19:34.202Z,98430.94
2022-11-16T09:22:06.133Z,98426.47
2022-11-16T09:24:38.975Z,98428.19
2022-11-16T09:27:16.901Z,98425.16
2022-11-16T09:29:47.525Z,98430.94
2022-11-16T09:32:17.881Z,98424.34
2022-11-16T09:34:50.126Z,98420.19
2022-11-16T09:37:21.171Z,98416.66
2022-11-16T09:39:50.986Z,98417.84
2022-11-16T09:42:35.240Z,98419.97
2022-11-16T09:45:23.773Z,98415.66
2022-11-16T09:48:09.029Z,98414.38
2022-11-16T09:50:55.942Z,98412.03
2022-11-16T09:53:40.472Z,98419.06
2022-11-16T09:56:20.751Z,98414.19
2022-11-16T09:59:00.280Z,98411.03
2022-11-16T10:01:41.816Z,98418.16
2022-11-16T10:04:14.205Z,98416.69
2022-11-16T10:06:58.965Z,98405.50
2022-11-16T10:09:30.332Z,98410.72
2022-11-16T10:12:18.244Z,98419.19
2022-11-16T10:15:13.895Z,98411.53
2022-11-16T10:21:27.199Z,98402.88
2022-11-16T10:24:13.534Z,98400.88
2022-11-16T10:26:59.630Z,98398.59
2022-11-16T10:29:45.396Z,98393.06
2022-11-16T10:32:25.024Z,98391.56
2022-11-16T10:35:04.076Z,98389.44
2022-11-16T10:37:39.485Z,98390.59
2022-11-16T10:40:33.608Z,98391.56
2022-11-16T10:43:06.281Z,98378.41
2022-11-16T10:45:41.009Z,98374.47
2022-11-16T10:48:23.489Z,98382.28
2022-11-16T10:51:04.632Z,98381.44
2022-11-16T10:53:44.581Z,98378.13
2022-11-16T10:56:27.710Z,98378.97
2022-11-16T10:59:08.182Z,98382.81
2022-11-16T11:01:41.993Z,98374.47
2022-11-16T11:04:16.943Z,98378.63
2022-11-16T11:06:55.135Z,98377.09
2022-11-16T11:09:28.630Z,98378.63
2022-11-16T11:12:24.183Z,98369.31
2022-11-16T11:15:08.709Z,98362.84
2022-11-16T11:17:38.669Z,98377.63
2022-11-16T11:20:23.086Z,98374.47
2022-11-16T11:23:16.871Z,98374.16
2022-11-16T11:25:53.360Z,98368.50
2022-11-16T11:28:37.835Z,98372.50
2022-11-16T11:31:17.407Z,98370.47
2022-11-16T11:33:52.134Z,98368.53
2022-11-16T11:36:22.955Z,98370.16
2022-11-16T11:39:13.461Z,98359.53
2022-11-16T11:41:51.778Z,98379.81
2022-11-16T11:44:24.766Z,98364.03
2022-11-16T11:47:42.366Z,98364.31
2022-11-16T11:50:08.124Z,98361.53
2022-11-16T11:52:44.473Z,98367.84
2022-11-16T11:55:42.800Z,98367.34
2022-11-16T11:58:19.583Z,98365.53
2022-11-16T12:01:10.172Z,98365.38
2022-11-16T12:04:16.966Z,98369.81
2022-11-16T12:06:53.806Z,98366.84
2022-11-16T12:09:40.092Z,98353.22
2022-11-16T12:12:29.733Z,98356.53
2022-11-16T12:15:26.170Z,98359.50
2022-11-16T12:17:59.618Z,98354.72
2022-11-16T12:20:37.905Z,98356.53
2022-11-16T12:23:40.252Z,98347.69
2022-11-16T12:26:19.222Z,98348.06
2022-11-16T12:29:13.255Z,98343.06
2022-11-16T12:32:16.754Z,98343.72
2022-11-16T12:35:00.434Z,98341.25
2022-11-16T12:37:39.161Z,98338.91
2022-11-16T12:40:23.920Z,98340.56
2022-11-16T12:43:14.745Z,98329.91
2022-11-16T12:46:19.515Z,98339.56
2022-11-16T12:49:34.512Z,98329.56
2022-11-16T12:53:01.082Z,98333.09
2022-11-16T12:55:35.115Z,98342.22
2022-11-16T12:58:15.279Z,98340.88
2022-11-16T13:01:03.344Z,98338.88
2022-11-16T13:03:38.040Z,98347.66
2022-11-16T13:06:13.732Z,98350.38
2022-11-16T13:09:00.059Z,98346.81
2022-11-16T13:11:41.735Z,98350.13
2022-11-16T13:14:26.123Z,98339.28
2022-11-16T13:16:59.194Z,98332.88
2022-11-16T13:19:31.463Z,98340.19
2022-11-16T13:22:14.915Z,98338.88
2022-11-16T13:24:55.907Z,98339.16
2022-11-16T13:27:39.977Z,98333.56
2022-11-16T13:30:18.943Z,98341.19
2022-11-16T13:33:30.286Z,98331.06
2022-11-16T13:36:02.533Z,98321.28
2022-11-16T13:38:59.607Z,98326.91
2022-11-16T13:41:32.387Z,98325.44
2022-11-16T13:44:01.663Z,98324.41
2022-11-16T13:46:55.870Z,98320.09
2022-11-16T13:49:30.632Z,98312.94
2022-11-16T13:52:17.339Z,98317.78
2022-11-16T13:55:02.266Z,98310.28
2022-11-16T13:57:36.348Z,98307.59
2022-11-16T14:00:15.578Z,98309.63
2022-11-16T14:05:51.367Z,98307.47
2022-11-16T14:08:54.948Z,98300.97
2022-11-16T14:11:36.022Z,98293.84
2022-11-16T14:14:09.420Z,98296.81
2022-11-16T14:16:58.222Z,98297.16
2022-11-16T14:19:58.817Z,98297.16
2022-11-16T14:22:48.098Z,98295.31
2022-11-16T14:25:31.528Z,98300.00
2022-11-16T14:28:35.682Z,98297.97
2022-11-16T14:31:19.352Z,98301.66
2022-11-16T14:34:00.586Z,98298.00
2022-11-16T14:36:49.489Z,98293.19
2022-11-16T14:39:41.101Z,98292.47
2022-11-16T14:42:22.235Z,98291.66
2022-11-16T14:45:00.631Z,98281.69
2022-11-16T14:47:46.068Z,98281.69
2022-11-16T14:50:26.471Z,98278.00
2022-11-16T14:52:58.516Z,98282.69
2022-11-16T14:55:35.945Z,98282.00
2022-11-16T14:58:14.221Z,98290.00
2022-11-16T15:00:53.846Z,98283.16
2022-11-16T15:03:24.501Z,98275.53
2022-11-16T15:08:58.990Z,98269.56
2022-11-16T15:11:56.246Z,98272.53
2022-11-16T15:14:28.579Z,98270.19
2022-11-16T15:17:10.440Z,98271.03
2022-11-16T15:19:41.874Z,98263.38
2022-11-16T15:22:21.774Z,98269.88
2022-11-16T15:25:24.258Z,98264.38
2022-11-16T15:27:57.746Z,98271.19
2022-11-16T15:30:34.152Z,98266.38
2022-11-16T15:33:08.040Z,98269.38
2022-11-16T15:35:39.781Z,98260.38
2022-11-16T15:38:18.712Z,98255.91
2022-11-16T15:40:50.973Z,98258.91
2022-11-16T15:43:21.789Z,98247.06
2022-11-16T15:45:55.215Z,98254.06
2022-11-16T15:48:44.206Z,98248.44
2022-11-16T15:51:20.158Z,98238.44
2022-11-16T15:53:56.954Z,98251.59
2022-11-16T15:56:36.527Z,98241.91
2022-11-16T15:59:24.246Z,98247.75
2022-11-16T16:01:53.988Z,98252.09
2022-11-16T16:04:35.200Z,98247.41
2022-11-16T16:07:03.414Z,98257.91
2022-11-16T16:09:42.099Z,98257.88
2022-11-16T16:12:19.014Z,98250.09
2022-11-16T16:14:50.299Z,98246.44
2022-11-16T16:17:27.120Z,98245.06
2022-11-16T16:20:17.194Z,98238.09
2022-11-16T16:22:46.458Z,98243.91
2022-11-16T16:25:29.470Z,98249.41
2022-11-16T16:27:59.356Z,98246.41
2022-11-16T16:30:29.711Z,98248.22
2022-11-16T16:33:02.312Z,98250.91
2022-11-16T16:35:37.358Z,98243.59
2022-11-16T16:38:18.732Z,98243.09
2022-11-16T16:40:53.696Z,98241.44
2022-11-16T16:43:25.084Z,98243.91
2022-11-16T16:46:02.859Z,98242.41
2022-11-16T16:48:31.246Z,98241.28
2022-11-16T16:51:07.319Z,98246.59
2022-11-16T16:53:35.947Z,98241.59
2022-11-16T16:56:06.730Z,98244.41
2022-11-16T16:58:35.758Z,98246.09
2022-11-16T17:01:06.282Z,98242.25
2022-11-16T17:03:35.066Z,98241.28
2022-11-16T17:06:06.027Z,98251.25
2022-11-16T17:08:44.959Z,98244.25
2022-11-16T17:11:18.407Z,98247.06
2022-11-16T17:13:47.833Z,98241.75
2022-11-16T17:16:18.287Z,98236.13
2022-11-16T17:18:55.141Z,98245.75
2022-11-16T17:21:33.589Z,98241.09
2022-11-16T17:24:07.219Z,98246.25
2022-11-16T17:26:37.441Z,98241.91
2022-11-16T17:29:07.177Z,98241.91
2022-11-16T17:31:37.309Z,98248.06
2022-11-16T17:34:10.733Z,98250.06
2022-11-16T17:36:45.587Z,98246.44
2022-11-16T17:39:21.337Z,98247.75
2022-11-16T17:41:57.163Z,98249.06
2022-11-16T17:44:27.290Z,98247.06
2022-11-16T17:47:02.173Z,98237.94
2022-11-16T17:49:31.483Z,98243.94
2022-11-16T17:52:01.918Z,98240.94
2022-11-16T17:54:34.909Z,98248.28
2022-11-16T17:57:06.094Z,98254.22
2022-11-16T17:59:37.026Z,98245.59
2022-11-16T18:02:07.650Z,98243.25
2022-11-16T18:04:38.323Z,98242.44
2022-11-16T18:07:09.390Z,98239.09
2022-11-16T18:09:43.057Z,98251.06
2022-11-16T18:12:15.368Z,98249.25
2022-11-16T18:14:59.955Z,98237.47
2022-11-16T18:17:36.775Z,98244.09
2022-11-16T18:20:08.854Z,98246.75
2022-11-16T18:22:40.539Z,98238.59
2022-11-16T18:25:18.160Z,98242.09
2022-11-16T18:28:05.705Z,98238.75
2022-11-16T18:30:39.835Z,98231.63
2022-11-16T18:33:09.963Z,98226.78
2022-11-16T18:35:46.171Z,98239.09
2022-11-16T18:38:15.973Z,98237.47
2022-11-16T18:40:49.975Z,98233.44
2022-11-16T18:43:20.572Z,98238.09
2022-11-16T18:45:58.725Z,98236.09
2022-11-16T18:48:28.131Z,98235.28
2022-11-16T18:51:00.914Z,98241.44
2022-11-16T18:53:35.229Z,98238.78
2022-11-16T18:56:07.876Z,98240.78
2022-11-16T18:58:54.084Z,98250.72
2022-11-16T19:01:30.045Z,98244.09
2022-11-16T19:04:04.967Z,98242.59
2022-11-16T19:06:37.536Z,98239.94
2022-11-16T19:09:09.772Z,98247.06
2022-11-16T19:11:42.265Z,98235.59
2022-11-16T19:14:15.094Z,98231.94
2022-11-16T19:16:52.535Z,98232.81
2022-11-16T19:19:30.089Z,98232.94
2022-11-16T19:22:00.411Z,98238.44
2022-11-16T19:24:40.422Z,98232.78
2022-11-16T19:27:11.574Z,98236.94
2022-11-16T19:29:42.706Z,98231.97
2022-11-16T19:32:15.723Z,98234.13
2022-11-16T19:34:47.272Z,98230.31
2022-11-16T19:37:17.014Z,98228.94
2022-11-16T19:39:48.234Z,98234.78
2022-11-16T19:42:23.717Z,98230.13
2022-11-16T19:45:00.799Z,98228.97
2022-11-16T19:47:32.188Z,98232.13
2022-11-16T19:50:02.069Z,98236.28
2022-11-16T19:52:32.148Z,98233.78
2022-11-16T19:55:01.228Z,98231.59
2022-11-16T19:57:34.593Z,98226.63
2022-11-16T20:00:05.712Z,98231.28
2022-11-16T20:02:37.947Z,98226.81
2022-11-16T20:05:09.714Z,98225.16
2022-11-16T20:07:40.236Z,98223.81
2022-11-16T20:10:11.532Z,98230.28
2022-11-16T20:12:44.984Z,98228.63
2022-11-16T20:15:15.027Z,98229.28
2022-11-16T20:17:44.861Z,98216.84
2022-11-16T20:20:24.352Z,98217.81
2022-11-16T20:22:59.200Z,98221.13
2022-11-16T20:25:33.595Z,98222.81
2022-11-16T20:28:06.043Z,98222.47
2022-11-16T20:30:36.487Z,98216.81
2022-11-16T20:33:06.093Z,98212.97
2022-11-16T20:35:36.665Z,98218.81
2022-11-16T20:38:06.074Z,98208.81
2022-11-16T20:40:36.724Z,98199.50
2022-11-16T20:43:09.557Z,98194.03
2022-11-16T20:45:40.054Z,98200.00
2022-11-16T20:48:12.201Z,98192.03
2022-11-16T20:50:45.282Z,98187.06
2022-11-16T20:53:17.413Z,98195.69
2022-11-16T20:55:48.076Z,98188.22
2022-11-16T20:58:23.047Z,98182.06
2022-11-16T21:01:03.656Z,98174.59
2022-11-16T21:03:33.000Z,98174.75
2022-11-16T21:06:02.664Z,98181.72
2022-11-16T21:08:33.661Z,98174.91
2022-11-16T21:11:02.231Z,98172.09
2022-11-16T21:13:49.392Z,98170.09
2022-11-16T21:16:18.631Z,98175.75
2022-11-16T21:18:46.862Z,98175.91
2022-11-16T21:21:15.684Z,98171.25
2022-11-16T21:23:52.997Z,98169.13
2022-11-16T21:26:24.188Z,98169.94
2022-11-16T21:28:56.462Z,98159.13
2022-11-16T21:31:26.883Z,98159.44
2022-11-16T21:34:01.183Z,98155.28
2022-11-16T21:36:30.848Z,98154.81
2022-11-16T21:38:59.424Z,98151.47
2022-11-16T21:41:30.728Z,98142.84
2022-11-16T21:44:06.503Z,98143.19
2022-11-16T21:46:42.931Z,98146.00
2022-11-16T21:49:14.003Z,98149.31
2022-11-16T21:51:42.673Z,98151.47
2022-11-16T21:54:19.349Z,98156.31
2022-11-16T21:56:49.011Z,98151.16
2022-11-16T21:59:23.273Z,98146.47
2022-11-16T22:02:05.793Z,98157.13
2022-11-16T22:04:52.676Z,98151.66
2022-11-16T22:07:38.841Z,98162.28
2022-11-16T22:10:08.676Z,98152.31
2022-11-16T22:12:39.782Z,98157.63
2022-11-16T22:15:12.815Z,98150.34
2022-11-16T22:17:44.713Z,98144.66
2022-11-16T22:20:14.549Z,98146.97
2022-11-16T22:22:43.752Z,98152.31
2022-11-16T22:25:16.791Z,98153.97
2022-11-16T22:28:18.602Z,98150.00
2022-11-16T22:30:38.761Z,98157.47
2022-11-16T22:33:12.740Z,98156.44
2022-11-16T22:35:41.460Z,98154.63
2022-11-16T22:38:11.021Z,98156.78
2022-11-16T22:40:41.994Z,98156.09
2022-11-16T22:43:15.034Z,98157.63
2022-11-16T22:45:44.824Z,98151.28
2022-11-16T22:48:15.223Z,98151.47
2022-11-16T22:50:46.184Z,98138.19
2022-11-16T22:53:14.232Z,98132.34
2022-11-16T22:55:44.479Z,98148.13
2022-11-16T22:58:15.704Z,98158.47
2022-11-16T23:00:48.615Z,98154.47
2022-11-16T23:03:18.922Z,98158.66
2022-11-16T23:05:47.697Z,98158.66
2022-11-16T23:08:15.924Z,98156.13
2022-11-16T23:11:00.377Z,98164.78
2022-11-16T23:13:46.671Z,98162.44
2022-11-16T23:16:21.532Z,98162.13
2022-11-16T23:18:57.448Z,98166.91
2022-11-16T23:21:44.554Z,98165.44
2022-11-16T23:24:32.543Z,98159.44
2022-11-16T23:27:23.960Z,98151.13
2022-11-16T23:29:58.119Z,98155.13
2022-11-16T23:32:30.432Z,98158.28
2022-11-16T23:35:08.014Z,98156.13
2022-11-16T23:38:00.642Z,98151.75
2022-11-16T23:40:30.770Z,98160.78
2022-11-16T23:43:17.274Z,98160.91
2022-11-16T23:45:46.658Z,98156.63
2022-11-16T23:48:22.573Z,98164.59
2022-11-16T23:50:53.142Z,98163.56
2022-11-16T23:53:23.989Z,98174.25
2022-11-16T23:55:55.091Z,98171.56
2022-11-16T23:58:23.735Z,98164.47
